Time;durP1;ratioP1;P1;durP2;ratioP2;P2;SDS_P1;SDS_P2;PMS_P1;PMS_P2;Temp;Humidity;BMP_temperature;BMP_pressure;BME280_temperature;BME280_humidity;BME280_pressure;Samples;Min_cycle;Max_cycle;Signal;HPM_P1;HPM_P2
2022/01/13 00:00:57;;;;;;;;;95.60;79.40;22.60;99.90;;;;;;5056881;28;8758;-70
2022/01/13 00:03:23;;;;;;;;;98.60;90.40;22.70;99.90;;;;;;5057056;28;8758;-70
2022/01/13 00:05:50;;;;;;;;;96.00;89.20;22.80;99.90;;;;;;5056993;28;8776;-70
2022/01/13 00:08:17;;;;;;;;;100.60;90.40;22.80;99.90;;;;;;5057058;28;8745;-70
2022/01/13 00:10:44;;;;;;;;;91.20;83.20;22.90;99.90;;;;;;5055623;28;8864;-70
2022/01/13 00:13:22;;;;;;;;;101.80;87.80;22.90;99.90;;;;;;5057736;28;8730;-71
2022/01/13 00:16:23;;;;;;;;;96.00;83.80;22.90;99.90;;;;;;5056847;28;9488;-72
2022/01/13 00:18:41;;;;;;;;;99.20;90.40;22.80;99.90;;;;;;5056882;28;8920;-71
2022/01/13 00:21:17;;;;;;;;;108.40;96.40;22.60;99.90;;;;;;5057495;28;8855;-71
2022/01/13 00:23:50;;;;;;;;;98.00;87.20;22.50;99.90;;;;;;5056955;28;8742;-70
2022/01/13 00:26:22;;;;;;;;;89.60;83.80;22.60;99.90;;;;;;5056968;28;8765;-70
2022/01/13 00:28:51;;;;;;;;;97.20;87.40;22.70;99.90;;;;;;5057046;28;8764;-71
2022/01/13 00:31:24;;;;;;;;;93.40;87.20;22.90;99.90;;;;;;5055859;28;8852;-69
2022/01/13 00:33:54;;;;;;;;;102.60;90.60;22.90;99.90;;;;;;5056883;28;9435;-69
2022/01/13 00:36:22;;;;;;;;;102.20;90.60;23.00;99.90;;;;;;5056598;28;8810;-69
2022/01/13 00:38:49;;;;;;;;;101.00;92.40;23.00;99.90;;;;;;5055566;28;8790;-70
2022/01/13 00:41:16;;;;;;;;;106.40;92.80;23.00;99.90;;;;;;5055419;28;8931;-70
2022/01/13 00:43:46;;;;;;;;;92.60;83.60;23.10;99.90;;;;;;5055303;28;9414;-71
2022/01/13 00:46:22;;;;;;;;;98.40;84.00;23.10;99.90;;;;;;5056986;28;8766;-70
2022/01/13 00:48:49;;;;;;;;;101.00;93.40;23.00;99.90;;;;;;5056558;28;8777;-70
2022/01/13 00:51:16;;;;;;;;;105.80;95.00;22.90;99.90;;;;;;5056690;28;8778;-70
2022/01/13 00:53:43;;;;;;;;;99.80;92.20;23.00;99.90;;;;;;5056167;28;8753;-71
2022/01/13 00:56:10;;;;;;;;;110.00;92.80;22.80;99.90;;;;;;5056350;28;8757;-71
2022/01/13 00:58:37;;;;;;;;;104.00;90.00;22.70;99.90;;;;;;5054483;28;8841;-71
2022/01/13 01:01:05;;;;;;;;;101.00;92.20;22.60;99.90;;;;;;5055756;28;8832;-70
2022/01/13 01:03:31;;;;;;;;;96.60;86.60;22.70;99.90;;;;;;5056095;28;8762;-69
2022/01/13 01:05:58;;;;;;;;;104.00;89.60;22.80;99.90;;;;;;5056136;28;9561;-71
2022/01/13 01:08:25;;;;;;;;;97.00;89.00;23.00;99.90;;;;;;5055173;28;8816;-70
2022/01/13 01:10:54;;;;;;;;;102.40;91.20;23.20;99.90;;;;;;5056734;28;8885;-70
2022/01/13 01:13:26;;;;;;;;;97.80;89.80;23.30;99.90;;;;;;5056864;28;8734;-70
2022/01/13 01:15:57;;;;;;;;;97.20;88.00;23.30;99.90;;;;;;5056669;28;8785;-70
2022/01/13 01:28:55;;;;;;;;;101.40;90.40;23.40;99.90;;;;;;5055270;28;8742;-70
2022/01/13 01:31:28;;;;;;;;;85.40;82.40;23.30;99.90;;;;;;5055300;28;8753;-69
2022/01/13 01:34:18;;;;;;;;;97.60;89.80;23.20;99.90;;;;;;5054773;28;8775;-69
2022/01/13 01:36:44;;;;;;;;;99.80;84.40;23.30;99.90;;;;;;5041839;28;8762;-68
2022/01/13 01:39:14;;;;;;;;;92.00;83.40;23.50;99.90;;;;;;5071588;28;8813;-70
2022/01/13 01:41:45;;;;;;;;;95.20;88.80;23.50;99.90;;;;;;5055780;28;8765;-70
2022/01/13 01:44:14;;;;;;;;;96.00;85.60;23.50;99.90;;;;;;5056179;28;8786;-70
2022/01/13 01:46:42;;;;;;;;;99.00;92.60;23.50;99.90;;;;;;5055508;28;8749;-69
2022/01/13 01:49:17;;;;;;;;;102.80;86.20;23.50;99.90;;;;;;5055120;28;8754;-69
2022/01/13 01:51:45;;;;;;;;;92.60;85.40;23.50;99.90;;;;;;5054680;28;8742;-69
2022/01/13 01:54:12;;;;;;;;;96.00;86.80;23.50;99.90;;;;;;5054586;28;8781;-69
2022/01/13 01:56:38;;;;;;;;;96.80;88.80;23.60;99.90;;;;;;5053804;28;8762;-68
2022/01/13 01:59:11;;;;;;;;;85.40;78.20;23.70;99.90;;;;;;5054641;28;9469;-69
2022/01/13 02:01:38;;;;;;;;;99.00;86.40;23.70;99.90;;;;;;5054660;28;9531;-69
2022/01/13 02:04:05;;;;;;;;;89.20;81.80;23.80;99.90;;;;;;5055905;28;8757;-69
2022/01/13 02:06:32;;;;;;;;;98.20;88.00;23.70;99.90;;;;;;5056058;28;8801;-68
2022/01/13 02:08:58;;;;;;;;;101.20;90.60;23.70;99.90;;;;;;5057923;28;8796;-70
2022/01/13 02:11:26;;;;;;;;;90.80;84.00;23.70;99.90;;;;;;5056122;28;8772;-69
2022/01/13 02:13:58;;;;;;;;;92.80;84.40;23.90;99.90;;;;;;5059946;28;8842;-70
2022/01/13 02:19:04;;;;;;;;;88.60;81.20;24.30;99.90;;;;;;5058851;28;8809;-70
2022/01/13 02:21:30;;;;;;;;;86.40;78.80;24.30;99.90;;;;;;5058225;28;8784;-70
2022/01/13 02:23:57;;;;;;;;;87.80;81.60;24.40;99.90;;;;;;5059859;28;8773;-70
2022/01/13 02:26:24;;;;;;;;;84.20;73.80;24.40;99.90;;;;;;5049523;28;8777;-69
2022/01/13 02:28:53;;;;;;;;;86.60;77.20;24.50;99.90;;;;;;5058813;28;8761;-70
2022/01/13 02:31:21;;;;;;;;;85.60;76.00;24.60;99.90;;;;;;5060405;28;8722;-70
2022/01/13 02:33:47;;;;;;;;;86.20;72.80;24.50;99.90;;;;;;5058634;28;8791;-70
2022/01/13 02:36:18;;;;;;;;;90.40;79.20;24.60;99.90;;;;;;5059602;28;8803;-70
2022/01/13 02:38:52;;;;;;;;;100.60;88.40;24.70;99.90;;;;;;5074878;28;8844;-71
2022/01/13 02:41:18;;;;;;;;;85.00;77.60;24.80;99.90;;;;;;5059049;28;8772;-68
2022/01/13 02:43:46;;;;;;;;;90.20;81.60;24.50;99.90;;;;;;5057737;28;8809;-70
2022/01/13 02:49:00;;;;;;;;;78.60;67.80;24.60;99.90;;;;;;5058130;28;8843;-70
2022/01/13 02:51:29;;;;;;;;;78.40;67.20;24.80;99.90;;;;;;5057191;28;8823;-71
2022/01/13 02:53:56;;;;;;;;;73.00;58.20;24.80;99.90;;;;;;5058934;28;8777;-70
2022/01/13 02:56:23;;;;;;;;;82.60;75.80;24.90;99.90;;;;;;5057125;28;8781;-69
2022/01/13 02:58:49;;;;;;;;;82.40;79.60;25.00;99.90;;;;;;5058435;28;8784;-70
2022/01/13 03:01:16;;;;;;;;;83.80;76.40;25.10;99.90;;;;;;5058536;28;8725;-69
2022/01/13 03:03:44;;;;;;;;;83.40;72.60;25.30;99.90;;;;;;5058205;28;8790;-69
2022/01/13 03:06:13;;;;;;;;;79.00;64.40;25.40;99.90;;;;;;5039915;28;8738;-70
2022/01/13 03:08:46;;;;;;;;;78.60;65.00;25.40;99.90;;;;;;5057378;28;8896;-70
2022/01/13 03:11:14;;;;;;;;;78.40;64.00;25.50;99.90;;;;;;5041480;28;8785;-70
2022/01/13 03:13:41;;;;;;;;;73.00;59.20;25.70;99.90;;;;;;5058295;28;8762;-70
2022/01/13 03:16:10;;;;;;;;;72.00;54.00;25.80;99.90;;;;;;5057501;28;8730;-70
2022/01/13 03:18:37;;;;;;;;;73.80;61.40;25.90;99.90;;;;;;5056695;28;8801;-70
2022/01/13 03:21:04;;;;;;;;;71.60;54.60;26.00;99.90;;;;;;5058356;28;8858;-70
2022/01/13 03:23:32;;;;;;;;;71.40;56.20;26.00;99.90;;;;;;5056618;28;8790;-70
2022/01/13 03:25:58;;;;;;;;;70.60;55.80;26.00;99.90;;;;;;5058447;28;9069;-70
2022/01/13 03:28:30;;;;;;;;;70.00;55.20;25.80;99.90;;;;;;5057572;28;8856;-69
2022/01/13 03:31:00;;;;;;;;;70.75;59.50;25.70;99.90;;;;;;5041717;28;8787;-70
2022/01/13 03:33:27;;;;;;;;;70.00;55.50;25.80;99.90;;;;;;5057441;28;8742;-70
2022/01/13 03:35:54;;;;;;;;;69.80;54.40;25.70;99.90;;;;;;5040235;28;8770;-70
2022/01/13 03:38:21;;;;;;;;;69.60;55.00;25.80;99.90;;;;;;5056275;28;9140;-70
2022/01/13 03:40:47;;;;;;;;;74.00;60.40;25.80;99.90;;;;;;5057892;28;8865;-69
2022/01/13 03:43:16;;;;;;;;;72.80;58.60;26.00;99.90;;;;;;5058138;28;8742;-70
2022/01/13 03:45:43;;;;;;;;;69.40;55.20;26.00;99.90;;;;;;5072628;28;8741;-70
2022/01/13 03:48:13;;;;;;;;;70.80;55.40;26.10;99.90;;;;;;5057823;28;8745;-70
2022/01/13 03:50:41;;;;;;;;;70.50;54.25;26.20;99.90;;;;;;5056274;28;8782;-70
2022/01/13 03:53:29;;;;;;;;;71.75;54.75;26.10;99.90;;;;;;5040185;28;8746;-70
2022/01/13 03:56:32;;;;;;;;;71.25;55.50;26.20;99.90;;;;;;5057576;28;8762;-70
2022/01/13 03:59:31;;;;;;;;;70.00;56.50;26.40;99.90;;;;;;5057243;28;8765;-70
2022/01/13 04:02:02;;;;;;;;;69.75;53.75;26.40;99.90;;;;;;5072975;28;8760;-71
2022/01/13 04:04:30;;;;;;;;;68.20;54.20;26.50;99.90;;;;;;5056859;28;8781;-70
2022/01/13 04:07:09;;;;;;;;;63.20;51.00;26.60;99.90;;;;;;5073192;28;8714;-70
2022/01/13 04:09:35;;;;;;;;;67.20;53.00;26.70;99.90;;;;;;5055693;28;8780;-70
2022/01/13 04:12:05;;;;;;;;;68.20;53.20;26.60;99.90;;;;;;5057315;28;8749;-70
2022/01/13 04:14:43;;;;;;;;;63.75;49.50;26.80;99.90;;;;;;5057108;28;8814;-70
2022/01/13 04:17:11;;;;;;;;;67.75;51.75;26.80;99.90;;;;;;5056184;28;8795;-70
2022/01/13 04:19:37;;;;;;;;;62.00;49.00;26.80;99.90;;;;;;5056554;28;8825;-70
2022/01/13 04:22:04;;;;;;;;;61.25;51.50;26.90;99.90;;;;;;5055576;28;8884;-70
2022/01/13 04:24:31;;;;;;;;;65.20;50.40;26.90;99.90;;;;;;5056847;28;8939;-70
2022/01/13 04:26:58;;;;;;;;;66.20;52.40;26.80;99.90;;;;;;5053626;28;8815;-71
2022/01/13 04:29:33;;;;;;;;;69.20;54.80;27.00;99.90;;;;;;5056813;28;8765;-70
2022/01/13 04:32:00;;;;;;;;;65.20;51.40;27.00;99.90;;;;;;5056819;28;8770;-70
2022/01/13 04:34:26;;;;;;;;;71.60;54.00;27.10;99.90;;;;;;5054799;28;8794;-70
2022/01/13 04:36:59;;;;;;;;;68.40;53.40;27.20;99.90;;;;;;5054192;28;8785;-71
2022/01/13 04:39:32;;;;;;;;;72.40;60.20;27.30;99.90;;;;;;5055100;28;8800;-70
2022/01/13 04:41:59;;;;;;;;;68.00;53.00;27.30;99.90;;;;;;5054178;28;9411;-70
2022/01/13 04:44:26;;;;;;;;;69.20;55.00;27.20;99.90;;;;;;5054939;28;8749;-70
2022/01/13 04:46:54;;;;;;;;;65.20;50.60;27.30;99.90;;;;;;5054858;28;8803;-71
2022/01/13 04:49:21;;;;;;;;;68.80;53.00;27.40;99.90;;;;;;5071947;28;8767;-70
2022/01/13 04:51:50;;;;;;;;;68.00;52.60;27.50;99.90;;;;;;5055389;28;8861;-71
2022/01/13 04:54:17;;;;;;;;;69.60;54.00;27.50;99.90;;;;;;5056220;28;8796;-67
2022/01/13 04:59:16;;;;;;;;;68.40;53.20;28.00;98.50;;;;;;5056043;28;8827;-70
2022/01/13 05:01:51;;;;;;;;;65.80;52.20;28.10;98.90;;;;;;5055693;28;8734;-70
2022/01/13 05:04:17;;;;;;;;;66.60;51.20;28.20;98.80;;;;;;5054723;28;8786;-69
2022/01/13 05:06:44;;;;;;;;;68.00;53.00;28.00;99.20;;;;;;5056137;28;9406;-70
2022/01/13 05:09:11;;;;;;;;;66.00;51.25;28.20;98.80;;;;;;5071408;28;8758;-70
2022/01/13 05:11:38;;;;;;;;;68.40;53.60;28.40;98.60;;;;;;5054687;28;8777;-70
2022/01/13 05:14:04;;;;;;;;;63.75;49.75;28.30;98.10;;;;;;5054626;28;9431;-70
2022/01/13 05:16:47;;;;;;;;;65.00;49.75;28.20;98.10;;;;;;5055817;28;8745;-70
2022/01/13 05:19:19;;;;;;;;;63.00;50.00;28.10;98.90;;;;;;5056079;28;8859;-70
2022/01/13 05:22:15;;;;;;;;;63.00;48.50;28.10;98.00;;;;;;5054493;28;8827;-70
2022/01/13 05:24:32;;;;;;;;;64.00;50.75;28.00;98.10;;;;;;5055757;28;8823;-69
2022/01/13 05:26:58;;;;;;;;;64.25;51.00;28.00;97.60;;;;;;5055917;28;8870;-70
2022/01/13 05:29:25;;;;;;;;;67.25;52.50;28.10;97.80;;;;;;5056300;28;8773;-70
2022/01/13 05:31:52;;;;;;;;;61.50;50.25;28.10;97.50;;;;;;5056115;28;8742;-70
2022/01/13 05:34:19;;;;;;;;;56.50;45.75;28.30;97.50;;;;;;5056147;28;8787;-68
2022/01/13 05:36:45;;;;;;;;;59.00;48.25;28.40;96.50;;;;;;5055629;28;8876;-70
2022/01/13 05:39:12;;;;;;;;;60.25;48.00;28.40;96.70;;;;;;5054794;28;8817;-70
2022/01/13 05:41:39;;;;;;;;;64.25;52.75;28.40;96.20;;;;;;5071084;28;8785;-70
2022/01/13 05:44:06;;;;;;;;;61.00;48.75;28.40;96.00;;;;;;5057116;28;8761;-70
2022/01/13 05:46:36;;;;;;;;;61.80;48.60;28.40;96.30;;;;;;5059455;28;8760;-70
2022/01/13 05:49:02;;;;;;;;;63.60;51.40;28.40;96.10;;;;;;5060306;28;8766;-70
2022/01/13 05:51:29;;;;;;;;;63.40;49.60;28.40;96.60;;;;;;5060146;28;9410;-69
2022/01/13 05:53:56;;;;;;;;;64.60;52.20;28.40;97.10;;;;;;5060053;28;8784;-69
2022/01/13 05:56:22;;;;;;;;;64.00;51.20;28.40;97.20;;;;;;5059522;28;8865;-70
2022/01/13 05:58:50;;;;;;;;;64.40;51.20;28.40;97.50;;;;;;5058612;28;8762;-70
2022/01/13 06:01:17;;;;;;;;;60.75;49.50;28.30;97.80;;;;;;5058553;28;8757;-68
2022/01/13 06:03:44;;;;;;;;;66.25;50.75;28.30;97.80;;;;;;5059109;28;8833;-68
2022/01/13 06:06:11;;;;;;;;;63.00;50.40;28.40;97.60;;;;;;5059134;28;8764;-70
2022/01/13 06:08:37;;;;;;;;;66.50;51.75;28.40;97.50;;;;;;5059241;28;8856;-70
2022/01/13 06:11:04;;;;;;;;;64.40;52.40;28.40;97.30;;;;;;5059397;28;8754;-70
2022/01/13 06:13:31;;;;;;;;;64.25;46.75;28.40;97.10;;;;;;5059119;28;8734;-69
2022/01/13 06:15:57;;;;;;;;;57.00;44.50;28.30;97.10;;;;;;5059745;28;8737;-70
2022/01/13 06:18:25;;;;;;;;;58.00;48.75;28.30;96.90;;;;;;5059251;28;8804;-70
2022/01/13 06:20:52;;;;;;;;;66.00;52.00;28.20;96.70;;;;;;5059558;28;8756;-70
2022/01/13 06:23:21;;;;;;;;;60.00;45.00;28.20;96.70;;;;;;5058406;28;8738;-70
2022/01/13 06:25:51;;;;;;;;;62.25;47.50;28.20;96.90;;;;;;5059629;28;9391;-70
2022/01/13 06:28:17;;;;;;;;;62.25;47.75;28.20;96.50;;;;;;5060372;28;8742;-67
2022/01/13 06:30:44;;;;;;;;;62.50;49.25;28.10;96.30;;;;;;5059590;28;8754;-70
2022/01/13 06:33:11;;;;;;;;;49.75;40.00;28.30;96.00;;;;;;5059676;28;8730;-70
2022/01/13 06:35:38;;;;;;;;;65.25;49.50;28.30;96.10;;;;;;5057726;28;8785;-70
2022/01/13 06:38:05;;;;;;;;;61.00;48.25;28.30;96.60;;;;;;5058788;28;8738;-70
2022/01/13 06:40:31;;;;;;;;;64.50;50.00;28.30;96.70;;;;;;5041152;28;9232;-69
2022/01/13 06:42:58;;;;;;;;;61.50;49.50;28.20;95.90;;;;;;5057975;28;8935;-70
2022/01/13 06:45:25;;;;;;;;;62.75;50.00;28.30;95.80;;;;;;5058521;28;8825;-70
2022/01/13 06:47:51;;;;;;;;;62.75;48.25;28.30;96.20;;;;;;5058971;28;8722;-69
2022/01/13 06:50:18;;;;;;;;;59.50;49.00;28.20;96.40;;;;;;5058641;28;8718;-68
2022/01/13 06:52:47;;;;;;;;;61.50;49.25;28.30;96.70;;;;;;5059254;28;8797;-71
2022/01/13 06:55:14;;;;;;;;;60.50;47.50;28.30;96.10;;;;;;5059527;28;8872;-70
2022/01/13 06:57:40;;;;;;;;;59.50;47.75;28.40;95.50;;;;;;5056751;28;9769;-70
2022/01/13 07:00:08;;;;;;;;;58.25;47.50;28.40;94.90;;;;;;5058573;28;8797;-70
2022/01/13 07:02:35;;;;;;;;;59.75;48.00;28.30;95.30;;;;;;5056940;28;8785;-69
2022/01/13 07:05:02;;;;;;;;;63.00;49.25;28.20;95.90;;;;;;5057904;28;8758;-69
2022/01/13 07:07:36;;;;;;;;;59.50;48.25;28.40;95.80;;;;;;5057979;28;8754;-64
2022/01/13 07:10:04;;;;;;;;;61.50;49.00;28.50;95.30;;;;;;5041928;28;8793;-70
2022/01/13 07:12:31;;;;;;;;;56.75;46.75;28.40;96.70;;;;;;5056744;28;9504;-68
2022/01/13 07:14:57;;;;;;;;;60.25;47.25;28.40;95.40;;;;;;5058803;28;8801;-69
2022/01/13 07:17:24;;;;;;;;;61.25;48.25;28.40;95.20;;;;;;5058361;28;8848;-70
2022/01/13 07:19:51;;;;;;;;;57.25;45.25;28.60;94.90;;;;;;5058360;28;8772;-70
2022/01/13 07:22:18;;;;;;;;;60.00;47.25;28.70;94.80;;;;;;5057131;28;8868;-67
2022/01/13 07:24:46;;;;;;;;;57.25;46.25;28.60;95.10;;;;;;5058552;28;8742;-70
2022/01/13 07:27:13;;;;;;;;;56.50;46.00;28.50;94.30;;;;;;5057987;28;8773;-70
2022/01/13 07:29:42;;;;;;;;;58.25;47.00;28.40;94.50;;;;;;5056555;28;9426;-70
2022/01/13 07:32:10;;;;;;;;;57.00;45.50;28.50;95.00;;;;;;5058766;28;8761;-70
2022/01/13 07:34:37;;;;;;;;;57.00;43.00;28.50;94.80;;;;;;5058122;28;8808;-70
2022/01/13 07:37:04;;;;;;;;;58.25;46.75;28.50;93.40;;;;;;5059177;28;8730;-70
2022/01/13 07:39:31;;;;;;;;;55.50;45.75;28.40;93.90;;;;;;5058024;28;8746;-69
2022/01/13 07:41:58;;;;;;;;;58.25;45.50;28.40;94.30;;;;;;5058054;28;8765;-70
2022/01/13 07:44:25;;;;;;;;;56.00;45.00;28.30;94.30;;;;;;5056639;28;8796;-69
2022/01/13 07:46:52;;;;;;;;;55.75;44.75;28.30;94.00;;;;;;5057961;28;8762;-70
2022/01/13 07:49:21;;;;;;;;;52.50;43.25;28.40;93.50;;;;;;5058098;28;8845;-68
2022/01/13 07:51:48;;;;;;;;;54.75;44.50;28.60;92.70;;;;;;5058231;28;10685;-70
2022/01/13 07:54:14;;;;;;;;;54.00;44.25;28.70;92.50;;;;;;5056275;28;8778;-70
2022/01/13 07:56:41;;;;;;;;;49.25;38.25;28.80;92.60;;;;;;5057433;28;8773;-70
2022/01/13 07:59:11;;;;;;;;;56.75;43.00;29.00;92.70;;;;;;5057669;28;8804;-70
2022/01/13 08:01:37;;;;;;;;;53.50;42.25;28.90;91.20;;;;;;5057179;28;8750;-69
2022/01/13 08:04:04;;;;;;;;;54.75;45.50;29.00;92.30;;;;;;5055893;28;8805;-69
2022/01/13 08:06:33;;;;;;;;;55.00;45.00;29.10;92.10;;;;;;5057355;28;9123;-70
2022/01/13 08:09:00;;;;;;;;;53.50;43.00;29.30;91.30;;;;;;5056345;28;8750;-70
2022/01/13 08:11:27;;;;;;;;;56.75;44.00;29.40;90.70;;;;;;5056917;28;8827;-70
2022/01/13 08:13:53;;;;;;;;;53.25;43.50;29.40;91.40;;;;;;5057229;28;8758;-70
2022/01/13 08:16:20;;;;;;;;;54.50;42.50;29.40;91.60;;;;;;5057230;28;8773;-69
2022/01/13 08:21:31;;;;;;;;;54.00;44.25;29.30;91.20;;;;;;5056743;28;8750;-71
2022/01/13 08:23:58;;;;;;;;;55.75;43.25;29.30;91.80;;;;;;5057126;28;8753;-71
2022/01/13 08:26:26;;;;;;;;;53.25;44.75;29.30;90.90;;;;;;5056795;28;8788;-70
2022/01/13 08:28:53;;;;;;;;;52.75;43.00;29.30;90.50;;;;;;5057061;28;8754;-69
2022/01/13 08:31:20;;;;;;;;;51.75;43.25;29.30;90.50;;;;;;5055785;28;8827;-69
2022/01/13 08:33:46;;;;;;;;;52.25;42.25;29.20;90.60;;;;;;5056904;28;8773;-70
2022/01/13 08:36:13;;;;;;;;;53.25;41.50;29.20;91.00;;;;;;5056589;28;8742;-70
2022/01/13 08:38:40;;;;;;;;;51.25;42.00;29.30;91.40;;;;;;5056642;28;8804;-70
2022/01/13 08:41:06;;;;;;;;;50.00;41.00;29.20;90.80;;;;;;5056625;28;9109;-70
2022/01/13 08:43:34;;;;;;;;;55.00;43.00;29.10;89.40;;;;;;5056630;28;8742;-70
2022/01/13 08:46:04;;;;;;;;;52.00;42.00;29.10;90.60;;;;;;5057233;28;8781;-69
2022/01/13 08:48:32;;;;;;;;;50.50;40.00;29.20;90.70;;;;;;5056466;28;8744;-70
2022/01/13 08:50:59;;;;;;;;;56.25;44.50;29.20;90.00;;;;;;5056429;28;8754;-70
2022/01/13 08:53:26;;;;;;;;;51.50;41.50;29.10;90.20;;;;;;5055043;28;8765;-69
2022/01/13 08:55:54;;;;;;;;;51.50;42.25;29.10;91.00;;;;;;5046395;28;8790;-70
2022/01/13 08:58:25;;;;;;;;;53.25;40.25;29.10;91.20;;;;;;5056256;28;8726;-69
2022/01/13 09:00:53;;;;;;;;;49.50;41.00;29.10;90.70;;;;;;5056658;28;8721;-70
2022/01/13 09:03:19;;;;;;;;;50.00;41.75;29.30;89.10;;;;;;5056117;28;8741;-69
2022/01/13 09:05:46;;;;;;;;;51.75;41.75;29.40;89.90;;;;;;5055890;28;8742;-69
2022/01/13 09:08:13;;;;;;;;;52.00;42.50;29.50;89.90;;;;;;5055029;28;8729;-70
2022/01/13 09:10:40;;;;;;;;;54.00;43.50;29.30;90.30;;;;;;5056012;28;8746;-70
2022/01/13 09:13:12;;;;;;;;;51.75;42.00;29.20;90.70;;;;;;5057452;28;8702;-70
2022/01/13 09:15:44;;;;;;;;;52.50;43.00;29.20;90.60;;;;;;5056216;28;8884;-69
2022/01/13 09:18:16;;;;;;;;;52.50;40.75;29.20;90.70;;;;;;5056257;28;8737;-70
2022/01/13 09:20:43;;;;;;;;;50.75;40.50;29.20;90.30;;;;;;5058313;28;8754;-70
2022/01/13 09:23:10;;;;;;;;;50.25;41.50;29.20;90.10;;;;;;5065124;28;9408;-69
2022/01/13 09:25:37;;;;;;;;;55.50;44.75;29.20;90.50;;;;;;5046016;28;8774;-70
2022/01/13 09:28:05;;;;;;;;;54.50;43.50;29.20;90.60;;;;;;5059824;28;8762;-69
2022/01/13 09:30:32;;;;;;;;;54.75;45.00;29.20;89.90;;;;;;5060380;28;8805;-70
2022/01/13 09:32:59;;;;;;;;;55.50;44.25;29.30;90.00;;;;;;5060597;28;8780;-69
2022/01/13 09:35:26;;;;;;;;;53.50;42.50;29.30;90.60;;;;;;5059924;28;8835;-69
2022/01/13 09:37:52;;;;;;;;;55.75;44.75;29.30;90.20;;;;;;5060386;28;8757;-69
2022/01/13 09:40:19;;;;;;;;;57.50;44.75;29.20;90.60;;;;;;5060983;28;8921;-69
2022/01/13 09:42:46;;;;;;;;;50.25;40.25;29.20;89.70;;;;;;5075131;28;9223;-70
2022/01/13 09:45:14;;;;;;;;;51.75;41.25;29.10;90.90;;;;;;5059939;28;8859;-70
2022/01/13 09:47:41;;;;;;;;;50.50;42.75;29.00;90.80;;;;;;5059760;28;9532;-70
2022/01/13 09:50:12;;;;;;;;;53.50;44.25;29.00;91.80;;;;;;5059719;28;8776;-70
2022/01/13 09:52:39;;;;;;;;;52.75;43.75;28.90;92.40;;;;;;5059131;28;9650;-70
2022/01/13 09:55:07;;;;;;;;;47.50;39.50;28.80;91.70;;;;;;5059401;28;8737;-70
2022/01/13 09:57:34;;;;;;;;;55.50;44.25;28.70;91.60;;;;;;5059573;28;8897;-69
2022/01/13 10:00:01;;;;;;;;;53.75;43.50;28.80;91.10;;;;;;5059999;28;8801;-70
2022/01/13 10:02:30;;;;;;;;;47.75;40.50;28.80;91.00;;;;;;5034648;28;8761;-69
2022/01/13 10:04:57;;;;;;;;;50.50;40.00;28.70;90.60;;;;;;5059304;28;8777;-70
2022/01/13 10:07:43;;;;;;;;;48.25;37.75;28.70;90.10;;;;;;5060176;28;8868;-69
2022/01/13 10:10:14;;;;;;;;;51.75;41.75;28.70;90.30;;;;;;5060188;28;8737;-70
2022/01/13 10:12:43;;;;;;;;;55.25;44.25;28.70;90.30;;;;;;5059288;28;8738;-69
2022/01/13 10:17:49;;;;;;;;;55.25;43.50;28.60;91.10;;;;;;5059404;28;8785;-70
2022/01/13 10:20:18;;;;;;;;;55.75;44.50;28.60;91.70;;;;;;5059299;28;8773;-70
2022/01/13 10:22:45;;;;;;;;;52.25;44.00;28.50;91.20;;;;;;5059239;28;9513;-70
2022/01/13 10:25:37;;;;;;;;;58.25;44.75;28.50;92.00;;;;;;5058738;28;8750;-70
2022/01/13 10:28:13;;;;;;;;;58.50;44.75;28.30;91.50;;;;;;5059969;28;8748;-70
2022/01/13 10:30:40;;;;;;;;;58.00;46.25;28.30;92.40;;;;;;5059128;28;8798;-71
2022/01/13 10:33:17;;;;;;;;;57.50;47.75;28.30;92.40;;;;;;5058708;28;8770;-71
2022/01/13 10:35:44;;;;;;;;;60.25;47.00;28.30;92.10;;;;;;5059613;28;9406;-71
2022/01/13 10:38:16;;;;;;;;;62.25;47.75;28.20;92.30;;;;;;5059304;28;8761;-71
2022/01/13 10:40:45;;;;;;;;;61.50;47.00;28.10;92.40;;;;;;5058276;28;8787;-70
2022/01/13 10:43:12;;;;;;;;;60.60;48.80;28.10;92.50;;;;;;5060376;28;8765;-70
2022/01/13 10:45:47;;;;;;;;;68.25;50.75;28.00;93.30;;;;;;5058844;28;9072;-70
2022/01/13 10:48:18;;;;;;;;;60.75;48.75;27.90;93.70;;;;;;5074434;28;8762;-70
2022/01/13 10:51:06;;;;;;;;;61.75;49.25;27.90;93.30;;;;;;5058988;28;8776;-70
2022/01/13 10:53:51;;;;;;;;;59.50;48.75;27.90;93.30;;;;;;5058159;28;8778;-70
2022/01/13 10:56:20;;;;;;;;;57.25;48.00;27.80;93.20;;;;;;5041191;28;9430;-68
2022/01/13 10:58:53;;;;;;;;;58.50;46.50;27.80;93.20;;;;;;5058886;28;8750;-70
2022/01/13 11:01:19;;;;;;;;;60.25;48.50;27.70;93.10;;;;;;5058868;28;8754;-69
2022/01/13 11:03:47;;;;;;;;;58.50;46.25;27.70;93.60;;;;;;5058761;28;8860;-70
2022/01/13 11:06:14;;;;;;;;;62.00;49.50;27.60;94.40;;;;;;5057819;28;8750;-70
2022/01/13 11:08:44;;;;;;;;;57.50;46.75;27.50;94.60;;;;;;5058565;28;8762;-70
2022/01/13 11:11:21;;;;;;;;;61.50;47.50;27.40;94.80;;;;;;5058883;28;8768;-71
2022/01/13 11:13:53;;;;;;;;;57.50;47.50;27.40;94.80;;;;;;5058939;28;8746;-70
2022/01/13 11:16:23;;;;;;;;;62.50;49.50;27.40;94.80;;;;;;5058699;28;8784;-69
2022/01/13 11:18:50;;;;;;;;;62.00;50.00;27.30;94.70;;;;;;5058928;28;8754;-70
2022/01/13 11:21:19;;;;;;;;;62.25;49.25;27.30;95.10;;;;;;5058755;28;8770;-70
2022/01/13 11:23:50;;;;;;;;;67.80;53.00;27.10;95.20;;;;;;5040765;28;9607;-70
2022/01/13 11:26:17;;;;;;;;;68.00;51.60;27.00;95.60;;;;;;5057157;28;8762;-68
2022/01/13 11:28:44;;;;;;;;;69.25;53.25;27.00;95.20;;;;;;5058425;28;8726;-70
2022/01/13 11:31:11;;;;;;;;;64.50;50.25;27.00;95.10;;;;;;5058822;28;8750;-70
2022/01/13 11:33:41;;;;;;;;;62.75;50.00;27.00;95.60;;;;;;5056902;28;8766;-70
2022/01/13 11:36:08;;;;;;;;;65.25;52.25;27.00;96.50;;;;;;5058627;28;8778;-70
2022/01/13 11:38:38;;;;;;;;;69.75;54.00;26.90;96.20;;;;;;5056486;28;8757;-70
2022/01/13 11:41:06;;;;;;;;;67.25;52.25;26.90;96.30;;;;;;5058131;28;8801;-70
2022/01/13 11:43:38;;;;;;;;;68.25;54.50;26.90;95.70;;;;;;5057841;28;8768;-69
2022/01/13 11:46:21;;;;;;;;;68.40;51.40;26.90;96.20;;;;;;5057194;28;8726;-70
2022/01/13 11:48:59;;;;;;;;;80.20;67.20;26.80;96.80;;;;;;5058088;28;8781;-70
2022/01/13 11:51:28;;;;;;;;;73.40;60.00;26.80;97.30;;;;;;5058194;28;8876;-70
2022/01/13 11:54:00;;;;;;;;;78.40;66.60;26.70;98.20;;;;;;5058250;28;9069;-70
2022/01/13 11:56:28;;;;;;;;;81.80;65.80;26.60;98.10;;;;;;5057754;28;9143;-70
2022/01/13 11:58:55;;;;;;;;;77.80;66.00;26.50;97.90;;;;;;5056505;28;8837;-70
2022/01/13 12:01:32;;;;;;;;;78.80;67.40;26.50;97.90;;;;;;5057738;28;8780;-70
2022/01/13 12:04:04;;;;;;;;;119.40;108.60;26.40;98.40;;;;;;5056549;28;8782;-70
2022/01/13 12:06:41;;;;;;;;;147.00;129.00;26.30;97.70;;;;;;5057873;28;8758;-70
2022/01/13 12:09:09;;;;;;;;;117.00;105.20;26.30;97.40;;;;;;5057732;28;8769;-73
2022/01/13 12:11:40;;;;;;;;;121.80;105.00;26.40;97.80;;;;;;5057321;28;8816;-74
2022/01/13 12:14:43;;;;;;;;;125.60;105.00;26.40;98.10;;;;;;5055753;28;9825;-69
2022/01/13 12:17:25;;;;;;;;;108.00;95.40;26.30;98.30;;;;;;4957195;28;8908;-70
2022/01/13 12:20:01;;;;;;;;;91.40;80.00;26.40;98.60;;;;;;5048689;28;8757;-70
2022/01/13 12:22:40;;;;;;;;;102.60;89.60;26.40;98.80;;;;;;5055722;28;8749;-69
2022/01/13 12:25:09;;;;;;;;;84.40;69.60;26.40;99.30;;;;;;5046153;28;8746;-70
2022/01/13 12:27:46;;;;;;;;;82.00;71.60;26.30;99.80;;;;;;5056824;28;8855;-70
2022/01/13 12:30:21;;;;;;;;;83.00;73.20;26.30;99.90;;;;;;5057435;28;8831;-71
2022/01/13 12:32:53;;;;;;;;;106.60;89.20;26.20;99.90;;;;;;5057658;28;8754;-70
2022/01/13 12:35:29;;;;;;;;;99.80;87.60;26.20;99.90;;;;;;5056960;28;8778;-69
2022/01/13 12:38:07;;;;;;;;;100.60;88.80;26.20;99.90;;;;;;5057369;28;8769;-71
2022/01/13 12:41:01;;;;;;;;;102.60;89.40;26.00;99.90;;;;;;5057195;28;8774;-70
2022/01/13 12:46:08;;;;;;;;;87.60;76.20;26.00;99.90;;;;;;5057843;28;8742;-70
2022/01/13 12:48:36;;;;;;;;;84.80;75.20;25.90;99.90;;;;;;5056903;28;8778;-70
2022/01/13 12:51:03;;;;;;;;;86.60;71.60;26.00;99.90;;;;;;5038926;28;8947;-70
2022/01/13 12:53:32;;;;;;;;;81.20;72.60;26.10;99.90;;;;;;5056673;28;8907;-69
2022/01/13 12:56:18;;;;;;;;;83.40;74.40;26.10;99.90;;;;;;5056199;28;9446;-70
2022/01/13 12:58:46;;;;;;;;;81.40;74.60;26.00;99.90;;;;;;5057225;28;8798;-70
2022/01/13 13:01:20;;;;;;;;;88.00;77.20;26.00;99.90;;;;;;5056866;28;8753;-70
2022/01/13 13:04:08;;;;;;;;;80.40;70.00;26.00;99.90;;;;;;5056929;28;8750;-71
2022/01/13 13:06:36;;;;;;;;;89.40;83.40;25.70;99.90;;;;;;5015774;28;8786;-71
2022/01/13 13:09:11;;;;;;;;;82.60;73.80;25.60;99.90;;;;;;5015949;28;9747;-70
2022/01/13 13:11:47;;;;;;;;;86.80;78.20;25.60;99.90;;;;;;5016645;28;9514;-70
2022/01/13 13:14:17;;;;;;;;;88.60;78.80;25.30;99.90;;;;;;5017372;28;8758;-70